createdAt,value
2018-06-27T11:22:05.071Z,23.20
2018-06-27T11:27:08.175Z,25.08
2018-06-27T11:32:11.344Z,26.25
2018-06-27T11:37:14.513Z,26.16
2018-06-27T11:42:17.706Z,25.77
2018-06-27T11:47:20.835Z,24.80
2018-06-27T11:52:23.971Z,25.29
2018-06-27T11:57:27.603Z,25.39
2018-06-27T12:02:31.366Z,25.86
2018-06-27T12:07:34.601Z,28.20
2018-06-27T12:12:37.749Z,25.56
2018-06-27T12:17:41.437Z,24.39
2018-06-27T12:22:44.646Z,25.04
2018-06-27T12:27:47.835Z,27.36
2018-06-27T12:32:51.291Z,27.97
2018-06-27T12:37:54.516Z,27.80
2018-06-27T12:42:57.954Z,27.65
2018-06-27T12:48:01.141Z,26.49
2018-06-27T12:53:04.545Z,25.41
2018-06-27T12:58:08.354Z,25.46
2018-06-27T13:03:12.157Z,28.16
2018-06-27T13:08:15.414Z,26.62
2018-06-27T13:13:18.644Z,26.20
2018-06-27T13:18:21.934Z,26.58
2018-06-27T13:23:25.064Z,26.15
2018-06-27T13:28:28.236Z,25.95
2018-06-27T13:33:31.367Z,26.43
2018-06-27T13:38:34.586Z,27.07
2018-06-27T13:43:37.826Z,27.73
2018-06-27T13:48:41.144Z,28.91
2018-06-27T13:53:44.425Z,30.23
2018-06-27T13:58:47.599Z,28.06
2018-06-27T14:03:50.814Z,25.90
2018-06-27T14:08:53.898Z,25.67
2018-06-27T14:13:57.070Z,25.41
2018-06-27T14:19:00.239Z,25.37
2018-06-27T14:24:03.485Z,25.31
2018-06-27T14:29:06.738Z,25.34
2018-06-27T14:34:11.919Z,25.40
2018-06-27T14:39:15.206Z,25.41
2018-06-27T14:44:18.437Z,26.16
2018-06-27T14:49:21.735Z,27.56
2018-06-27T14:54:25.594Z,27.11
2018-06-27T14:59:28.804Z,26.86
2018-06-27T15:04:31.955Z,26.04
2018-06-27T15:09:35.084Z,25.55
2018-06-27T15:14:38.184Z,25.00
2018-06-27T15:19:41.609Z,24.81
2018-06-27T15:24:44.947Z,24.81
2018-06-27T15:29:48.428Z,24.78
2018-06-27T15:34:51.528Z,24.70
2018-06-27T15:39:54.852Z,25.15
2018-06-27T15:44:58.028Z,26.26
2018-06-27T15:50:01.148Z,26.79
2018-06-27T15:55:04.560Z,25.60
2018-06-27T16:00:07.791Z,24.78
2018-06-27T16:05:11.027Z,24.90
2018-06-27T16:10:14.605Z,24.40
2018-06-27T16:15:18.632Z,24.95
2018-06-27T16:20:21.977Z,24.91
2018-06-27T16:25:25.096Z,25.33
2018-06-27T16:30:28.271Z,25.41
2018-06-27T16:35:32.112Z,25.86
2018-06-27T16:40:35.850Z,25.79
2018-06-27T16:45:38.989Z,26.05
2018-06-27T16:50:42.431Z,25.98
2018-06-27T16:55:45.903Z,26.34
2018-06-27T17:00:50.136Z,26.34
2018-06-27T17:05:54.455Z,26.65
2018-06-27T17:10:57.656Z,26.51
2018-06-27T17:16:00.816Z,26.21
2018-06-27T17:21:03.985Z,25.97
2018-06-27T17:26:07.197Z,25.67
2018-06-27T17:31:10.392Z,25.62
2018-06-27T17:36:13.907Z,25.72
2018-06-27T17:41:17.349Z,25.82
2018-06-27T17:46:20.633Z,25.77
2018-06-27T17:51:23.875Z,25.59
2018-06-27T17:56:27.445Z,25.25
2018-06-27T18:01:30.702Z,25.05
2018-06-27T18:06:33.842Z,24.51
2018-06-27T18:11:36.963Z,24.21
2018-06-27T18:16:40.147Z,23.94
2018-06-27T18:21:43.311Z,23.87
2018-06-27T18:26:46.459Z,23.27
2018-06-27T18:31:49.742Z,23.05
2018-06-27T18:36:53.073Z,22.99
2018-06-27T18:41:56.435Z,22.96
2018-06-27T18:47:02.479Z,22.67
2018-06-27T18:52:06.040Z,22.59
2018-06-27T18:57:09.229Z,22.32
2018-06-27T19:02:12.462Z,22.23
2018-06-27T19:07:15.671Z,22.01
2018-06-27T19:12:18.956Z,21.72
2018-06-27T19:17:22.248Z,21.36
2018-06-27T19:22:25.435Z,21.08
2018-06-27T19:27:28.699Z,20.77
2018-06-27T19:32:31.950Z,20.45
2018-06-27T19:37:35.073Z,20.39
2018-06-27T19:42:38.296Z,20.51
2018-06-27T19:47:41.547Z,20.11
2018-06-27T19:52:45.249Z,19.72
2018-06-27T19:57:48.961Z,19.34
2018-06-27T20:02:55.249Z,18.88
2018-06-27T20:07:59.779Z,18.46
2018-06-27T20:13:06.314Z,18.13
2018-06-27T20:18:09.871Z,18.02
2018-06-27T20:23:13.283Z,17.95
2018-06-27T20:28:16.427Z,18.07
2018-06-27T20:33:19.639Z,18.45
2018-06-27T20:38:22.789Z,18.58
2018-06-27T20:43:25.949Z,18.95
2018-06-27T20:48:29.405Z,18.81
2018-06-27T20:53:32.756Z,18.69
2018-06-27T20:58:36.020Z,18.83
2018-06-27T21:03:39.231Z,19.12
2018-06-27T21:08:42.353Z,19.31
2018-06-27T21:13:45.566Z,19.14
2018-06-27T21:18:49.637Z,18.96
2018-06-27T21:23:52.765Z,18.93
2018-06-27T21:28:55.855Z,18.83
2018-06-27T21:34:01.314Z,18.80
2018-06-27T21:39:07.404Z,18.96
2018-06-27T21:44:10.550Z,18.86
2018-06-27T21:49:13.666Z,18.76
2018-06-27T21:54:16.888Z,18.64
2018-06-27T21:59:20.030Z,18.53
2018-06-27T22:04:23.205Z,18.52
2018-06-27T22:09:26.763Z,18.52
2018-06-27T22:14:29.958Z,18.42
2018-06-27T22:19:33.178Z,18.39
2018-06-27T22:24:36.501Z,18.32
2018-06-27T22:29:39.621Z,18.23
2018-06-27T22:34:42.849Z,18.11
2018-06-27T22:39:46.020Z,17.97
2018-06-27T22:44:49.170Z,18.01
2018-06-27T22:49:52.309Z,17.97
2018-06-27T22:54:55.408Z,17.92
2018-06-27T22:59:58.623Z,17.88
2018-06-27T23:05:01.793Z,17.88
2018-06-27T23:10:05.155Z,17.87
2018-06-27T23:15:08.383Z,17.92
2018-06-27T23:20:11.534Z,17.93
2018-06-27T23:25:14.682Z,17.89
2018-06-27T23:30:17.825Z,17.91
2018-06-27T23:35:21.310Z,17.93
2018-06-27T23:40:24.991Z,17.88
2018-06-27T23:45:28.133Z,17.87
2018-06-27T23:50:31.255Z,17.77
2018-06-27T23:55:34.387Z,17.78
